Terminal Aerodrome Forecast
Issued by NWS Sioux Falls, SD

Home | Current Version | Previous Version | Graphics & Text | Print | Product List | Glossary Off
Versions: 1 2 3 4 5 6 7 8 9 10 11 12 13 14 15

000
FTUS43 KFSD 182335
TAFFSD
TAF
KFSD 182335Z 1900/1924 32013KT P6SM BKN150
     FM190500 02016G26KT P6SM BKN028
     FM191200 02016G26KT P6SM -FZDZSN OVC025
     FM191500 02017G27KT 3SM -SN OVC021
     FM191700 02017G27KT 3SM -SN OVC015
     FM192100 02014G22KT P6SM -SN OVC018=

USA.gov is the U.S. government's official web portal to all federal, state and local government web resources and services.